Archival Weather

Aeroparque Jorge Newbery

Aeroparque Jorge Newbery, Argentina (SABE)

Report from: Saturday, May 14, 2022 9:00 AM -03
Current time: Sunday, June 26, 2022 2:29 PM -03

Current weather
Weather history
Weather forecast

Temperature15.0°C (59.0°F)
Dew point11.0°C (51.8°F)
Winds 4 kts (2.1 m/s, 4.6 mph) Vrb
Winds variableWinds variable from South-Southeast (150°) to West-Southwest (250°)
Visibility6.2 mi. (10 km)
Clouds Scattered clouds 4,300 ft. (1,311 m)
Altimeter30.09 in.Hg (1019 mB)
Relative humidity77 %
Density altitude-9 ft. (-3 m)
Remarks Corrected report
No significant changes expected in the next two hours
Flight conditions Visual Meteorological Conditions
Raw dataCOR SABE 141200Z 20004KT 150V250 9999 SCT043 15/11 Q1019 NOSIG RMK PP000
An error has occurred. This application may no longer respond until reloaded. Reload 🗙